Time;durP1;ratioP1;P1;durP2;ratioP2;P2;SDS_P1;SDS_P2;PMS_P1;PMS_P2;Temp;Humidity;BMP_temperature;BMP_pressure;BME280_temperature;BME280_humidity;BME280_pressure;Samples;Min_cycle;Max_cycle;Signal;HPM_P1;HPM_P2
2022/08/08 00:01:39;;;;;;;6.32;4.65;;;;;;;20.64;43.71;102313.13;5092289;28;20042;-75
2022/08/08 00:04:28;;;;;;;4.75;4.28;;;;;;;20.61;43.98;102314.25;5092553;28;20085;-76
2022/08/08 00:07:14;;;;;;;5.95;4.72;;;;;;;20.56;44.07;102318.41;5091994;27;20052;-75
2022/08/08 00:10:11;;;;;;;5.47;3.97;;;;;;;20.52;44.36;102319.69;5092609;28;20044;-77
2022/08/08 00:12:46;;;;;;;5.90;4.90;;;;;;;20.50;44.40;102325.28;5074391;28;20139;-75
2022/08/08 00:15:39;;;;;;;5.30;4.70;;;;;;;20.46;44.07;102322.97;5071775;28;20068;-76
2022/08/08 00:18:35;;;;;;;6.90;4.75;;;;;;;20.43;44.73;102334.16;5067373;28;20494;-76
2022/08/08 00:21:03;;;;;;;6.05;4.82;;;;;;;20.39;44.54;102327.22;5090431;28;20044;-76
2022/08/08 00:23:40;;;;;;;7.03;4.47;;;;;;;20.36;44.45;102333.81;5092129;27;20507;-75
2022/08/08 00:26:13;;;;;;;5.80;5.20;;;;;;;20.34;44.68;102332.22;5092200;28;20047;-75
2022/08/08 00:28:51;;;;;;;7.38;4.57;;;;;;;20.31;44.93;102327.91;5092268;28;20134;-75
2022/08/08 00:31:32;;;;;;;6.18;4.60;;;;;;;20.27;45.05;102329.16;5092105;28;20028;-75
2022/08/08 00:39:14;;;;;;;7.55;5.13;;;;;;;20.15;45.00;102332.97;5072100;28;20044;-76
2022/08/08 00:42:30;;;;;;;7.15;4.82;;;;;;;20.07;45.06;102335.53;5070447;28;20066;-76
2022/08/08 00:45:30;;;;;;;6.50;4.50;;;;;;;20.03;44.98;102329.44;5070515;28;20063;-76
2022/08/08 00:48:09;;;;;;;5.05;4.47;;;;;;;20.01;45.00;102328.72;5070212;28;20094;-76
2022/08/08 00:51:08;;;;;;;5.82;4.88;;;;;;;19.97;45.30;102328.09;5087428;28;20041;-76
2022/08/08 00:54:17;;;;;;;6.70;4.93;;;;;;;19.94;45.55;102322.06;5087512;28;20132;-76
2022/08/08 00:57:08;;;;;;;6.60;5.25;;;;;;;19.92;45.23;102321.34;5071388;28;20444;-77
2022/08/08 01:00:16;;;;;;;6.53;4.90;;;;;;;19.87;45.78;102318.13;5090771;28;20076;-77
2022/08/08 01:03:15;;;;;;;7.15;5.13;;;;;;;19.85;45.48;102317.41;5090714;28;20062;-77
2022/08/08 01:06:32;;;;;;;5.68;5.00;;;;;;;19.80;45.57;102319.66;5090754;28;20046;-77
2022/08/08 01:09:19;;;;;;;6.18;5.10;;;;;;;19.74;45.97;102310.16;5091851;28;20072;-77
2022/08/08 01:12:35;;;;;;;7.25;6.18;;;;;;;19.68;46.04;102314.28;5090791;28;20486;-77
2022/08/08 01:15:36;;;;;;;6.18;5.28;;;;;;;19.67;46.33;102308.97;5094718;28;20489;-76
2022/08/08 01:18:13;;;;;;;8.02;6.20;;;;;;;19.64;46.25;102309.22;5076236;28;20051;-77
2022/08/08 01:21:06;;;;;;;7.72;6.10;;;;;;;19.62;46.11;102312.09;5080031;28;20133;-77
2022/08/08 01:23:52;;;;;;;8.85;6.40;;;;;;;19.60;46.63;102316.81;5094866;28;20159;-76
2022/08/08 01:26:48;;;;;;;10.30;6.50;;;;;;;19.60;46.67;102308.63;5095167;28;20032;-77
2022/08/08 01:29:17;;;;;;;9.10;6.43;;;;;;;19.58;46.65;102310.63;5074744;28;20098;-77
2022/08/08 01:31:58;;;;;;;9.50;6.90;;;;;;;19.57;46.58;102308.03;5074459;28;20448;-77
2022/08/08 01:35:18;;;;;;;7.35;6.13;;;;;;;19.58;46.59;102312.50;5075946;28;20033;-77
2022/08/08 01:38:19;;;;;;;9.25;6.22;;;;;;;19.58;46.68;102310.63;5073939;28;20071;-77
2022/08/08 01:41:13;;;;;;;7.70;6.03;;;;;;;19.56;46.78;102312.63;5073555;28;20556;-78
2022/08/08 01:44:33;;;;;;;7.80;6.45;;;;;;;19.54;46.66;102309.16;5074872;28;20032;-78
2022/08/08 01:47:09;;;;;;;8.55;6.85;;;;;;;19.57;47.02;102310.75;5074675;28;20123;-76
2022/08/08 01:50:27;;;;;;;7.47;6.35;;;;;;;19.53;47.15;102307.44;5073674;28;20135;-77
2022/08/08 01:53:09;;;;;;;;;;;;;;;19.51;46.62;102309.41;5073933;28;20060;-78
2022/08/08 01:56:28;;;;;;;11.10;6.90;;;;;;;19.51;46.81;102303.06;5087543;28;19927;-77
2022/08/08 01:59:22;;;;;;;7.85;6.50;;;;;;;19.46;46.82;102308.94;5093933;28;20044;-77
2022/08/08 02:02:35;;;;;;;7.95;6.88;;;;;;;19.40;47.10;102304.00;5073316;28;20127;-77
2022/08/08 02:05:17;;;;;;;10.30;7.07;;;;;;;19.38;47.06;102307.84;5080515;28;20040;-76
2022/08/08 02:08:19;;;;;;;8.50;6.90;;;;;;;19.34;47.34;102312.69;5093684;28;20040;-76
2022/08/08 02:11:11;;;;;;;9.75;7.07;;;;;;;19.31;47.34;102311.06;5093638;28;20044;-76
2022/08/08 02:14:04;;;;;;;9.25;6.78;;;;;;;19.29;47.60;102312.19;5093653;28;20550;-76
2022/08/08 02:17:02;;;;;;;12.57;7.55;;;;;;;19.27;47.90;102314.19;5093203;28;20042;-76
2022/08/08 02:19:44;;;;;;;10.90;6.85;;;;;;;19.24;47.43;102314.44;5094763;28;20131;-77
2022/08/08 02:22:46;;;;;;;8.07;6.50;;;;;;;19.20;47.77;102316.56;5093201;28;20040;-76
2022/08/08 02:25:44;;;;;;;9.80;6.35;;;;;;;19.20;47.90;102316.56;5093057;28;20078;-76
2022/08/08 02:28:55;;;;;;;8.75;7.25;;;;;;;19.14;47.89;102311.63;5077652;28;20081;-76
2022/08/08 02:31:39;;;;;;;8.38;6.47;;;;;;;19.11;48.00;102311.03;5093515;28;20147;-77
2022/08/08 02:35:05;;;;;;;8.88;7.18;;;;;;;19.09;47.79;102307.56;5079684;28;20089;-77
2022/08/08 02:38:20;;;;;;;10.18;7.03;;;;;;;19.05;48.09;102312.41;5059878;28;20434;-76
2022/08/08 02:41:17;;;;;;;7.60;6.32;;;;;;;19.03;48.10;102309.81;5092926;28;20497;-76
2022/08/08 02:44:42;;;;;;;8.88;6.53;;;;;;;19.02;47.83;102307.22;5093281;28;20398;-75
2022/08/08 02:47:32;;;;;;;7.28;6.10;;;;;;;19.00;47.70;102307.34;5073151;28;20047;-79
2022/08/08 02:50:42;;;;;;;10.57;7.07;;;;;;;18.99;47.98;102312.91;5072677;28;20528;-80
2022/08/08 02:53:59;;;;;;;10.02;6.63;;;;;;;18.97;47.91;102321.22;5058229;28;20443;-81
2022/08/08 02:56:58;;;;;;;8.93;6.43;;;;;;;18.96;48.32;102313.16;5086170;28;20517;-78
2022/08/08 03:00:05;;;;;;;10.77;7.07;;;;;;;18.91;48.07;102316.28;5092867;28;20052;-78
2022/08/08 03:03:30;;;;;;;7.88;6.45;;;;;;;18.88;48.20;102310.22;5072591;28;20036;-79
2022/08/08 03:06:51;;;;;;;9.07;6.35;;;;;;;18.85;48.28;102311.34;5072855;28;20036;-78
2022/08/08 03:09:59;;;;;;;9.38;6.80;;;;;;;18.80;48.17;102319.03;5073477;28;20114;-78
2022/08/08 03:13:07;;;;;;;8.88;7.07;;;;;;;18.77;48.37;102315.69;5091997;28;20052;-79
2022/08/08 03:16:35;;;;;;;9.20;6.70;;;;;;;18.76;48.54;102319.41;5080865;28;20056;-78
2022/08/08 03:19:36;;;;;;;7.90;6.97;;;;;;;18.73;48.41;102310.50;5092546;28;20502;-77
2022/08/08 03:22:04;;;;;;;9.05;7.32;;;;;;;18.71;48.65;102314.34;5078184;28;20036;-76
2022/08/08 03:24:53;;;;;;;10.85;7.47;;;;;;;18.68;48.58;102323.63;5092570;28;20093;-76
2022/08/08 03:27:36;;;;;;;10.30;7.30;;;;;;;18.67;48.51;102315.59;5092597;28;20055;-76
2022/08/08 03:30:10;;;;;;;;;;;;;;;18.66;48.70;102322.00;5076826;28;20048;-74
2022/08/08 03:35:38;;;;;;;11.32;7.13;;;;;;;18.65;48.73;102331.16;5072197;28;20127;-74
2022/08/08 03:38:07;;;;;;;11.23;7.72;;;;;;;18.62;48.74;102326.84;5071939;28;20040;-75
2022/08/08 03:40:55;;;;;;;10.57;7.90;;;;;;;18.61;48.74;102326.94;5074947;28;20024;-75
2022/08/08 03:43:26;;;;;;;17.13;8.45;;;;;;;18.59;48.76;102335.22;5072104;28;20044;-75
2022/08/08 03:46:05;;;;;;;9.98;8.38;;;;;;;18.57;49.11;102334.44;5071973;28;20456;-75
2022/08/08 03:48:37;;;;;;;9.65;7.97;;;;;;;18.57;49.37;102339.88;5072015;28;20041;-78
2022/08/08 03:51:29;;;;;;;8.05;7.18;;;;;;;18.56;49.37;102340.88;5079031;28;20036;-78
2022/08/08 03:54:22;;;;;;;9.95;7.32;;;;;;;18.55;49.40;102341.00;5072230;28;20045;-76
2022/08/08 03:57:13;;;;;;;9.35;7.60;;;;;;;18.52;49.79;102341.25;5073440;28;20123;-77
2022/08/08 04:00:06;;;;;;;11.13;8.27;;;;;;;18.50;49.70;102340.50;5072028;28;20047;-75
2022/08/08 04:02:57;;;;;;;10.93;8.55;;;;;;;18.48;50.10;102348.81;5071631;28;20043;-75
2022/08/08 04:05:26;;;;;;;11.48;8.25;;;;;;;18.46;49.85;102353.50;5055346;28;20044;-75
2022/08/08 04:08:01;;;;;;;10.43;8.27;;;;;;;18.45;50.19;102351.78;5072083;28;20123;-75
2022/08/08 04:10:31;;;;;;;9.82;7.22;;;;;;;18.43;50.05;102351.91;5073790;28;20052;-76
2022/08/08 04:13:03;;;;;;;11.77;7.72;;;;;;;18.42;50.44;102352.88;5091995;28;20148;-76
2022/08/08 04:15:47;;;;;;;10.40;7.25;;;;;;;18.44;50.46;102350.03;5091880;28;20036;-76
2022/08/08 04:18:35;;;;;;;10.25;7.82;;;;;;;18.47;50.30;102354.38;5071346;28;20071;-76
2022/08/08 04:21:17;;;;;;;9.35;7.72;;;;;;;18.48;50.41;102356.09;5078145;28;20055;-78
2022/08/08 04:24:17;;;;;;;9.13;6.53;;;;;;;18.47;50.54;102349.78;5090513;28;20135;-78
2022/08/08 04:26:56;;;;;;;10.98;7.75;;;;;;;18.49;50.05;102349.66;5090362;28;20048;-78
2022/08/08 04:29:27;;;;;;;9.20;7.07;;;;;;;18.50;50.60;102354.13;5091134;28;20040;-77
2022/08/08 04:32:05;;;;;;;9.57;6.70;;;;;;;18.49;50.39;102355.09;5090757;28;20130;-78
2022/08/08 04:34:33;;;;;;;10.75;6.85;;;;;;;18.48;50.08;102356.97;5091712;28;20123;-78
2022/08/08 04:37:20;;;;;;;8.63;6.93;;;;;;;18.49;50.40;102360.53;5091813;28;20039;-78
2022/08/08 04:39:59;;;;;;;9.65;7.00;;;;;;;18.49;50.26;102357.81;5090901;28;20131;-78
2022/08/08 04:42:35;;;;;;;9.18;6.95;;;;;;;18.49;50.51;102347.81;5090078;28;20044;-78
2022/08/08 04:45:14;;;;;;;8.43;6.70;;;;;;;18.50;50.60;102360.41;5075223;28;20067;-79
2022/08/08 04:47:41;;;;;;;11.82;6.90;;;;;;;18.50;50.60;102365.00;5091079;28;20097;-78
2022/08/08 04:50:15;;;;;;;8.45;6.72;;;;;;;18.49;50.27;102375.00;5089805;28;20156;-78
2022/08/08 04:53:00;;;;;;;8.75;6.47;;;;;;;18.48;50.72;102372.41;5074967;28;20036;-79
2022/08/08 04:55:42;;;;;;;7.63;6.30;;;;;;;18.44;50.34;102379.97;5090074;28;20051;-78
2022/08/08 04:58:23;;;;;;;8.50;6.03;;;;;;;18.39;50.43;102372.16;5089992;28;20405;-77
2022/08/08 05:00:50;;;;;;;7.50;6.03;;;;;;;18.37;50.63;102378.72;5089599;28;20048;-76
2022/08/08 05:03:21;;;;;;;8.68;6.10;;;;;;;18.36;50.67;102391.44;5089821;28;20048;-76
2022/08/08 05:06:08;;;;;;;8.98;6.70;;;;;;;18.37;50.45;102403.19;5075954;28;20042;-76
2022/08/08 05:08:46;;;;;;;7.82;6.50;;;;;;;18.37;50.54;102395.03;5089962;28;20073;-76
2022/08/08 05:11:22;;;;;;;8.63;7.10;;;;;;;18.35;50.67;102399.75;5089512;28;20041;-77
2022/08/08 05:14:00;;;;;;;10.85;7.93;;;;;;;18.35;50.65;102399.75;5091225;28;20366;-76
2022/08/08 05:16:31;;;;;;;12.40;7.80;;;;;;;18.35;50.46;102394.28;5089700;28;20045;-78
2022/08/08 05:19:20;;;;;;;9.07;7.53;;;;;;;18.35;51.12;102395.16;5089753;28;20127;-78
2022/08/08 05:22:09;;;;;;;12.23;8.32;;;;;;;18.35;51.07;102395.16;5089206;28;20036;-78
2022/08/08 05:24:40;;;;;;;14.27;9.23;;;;;;;18.34;51.45;102393.44;5073762;28;20466;-78
2022/08/08 05:27:14;;;;;;;11.25;8.70;;;;;;;18.36;51.71;102396.91;5074077;28;20111;-78
2022/08/08 05:29:41;;;;;;;11.95;8.75;;;;;;;18.38;52.15;102396.78;5072805;28;20120;-77
2022/08/08 05:32:08;;;;;;;16.25;9.88;;;;;;;18.40;52.16;102397.50;5089373;28;20040;-78
2022/08/08 05:34:49;;;;;;;11.10;8.57;;;;;;;18.44;52.48;102393.56;5089872;28;20456;-78
2022/08/08 05:37:25;;;;;;;12.10;8.82;;;;;;;18.49;52.81;102385.91;5089800;28;20040;-78
2022/08/08 05:40:13;;;;;;;11.23;9.05;;;;;;;18.54;52.52;102393.69;5089304;28;20094;-78
2022/08/08 05:42:43;;;;;;;12.30;9.07;;;;;;;18.56;52.89;102395.31;5072893;28;20405;-76
2022/08/08 05:45:15;;;;;;;10.82;8.80;;;;;;;18.60;53.19;102393.22;5089622;28;20040;-77
2022/08/08 05:48:04;;;;;;;14.77;9.52;;;;;;;18.65;53.16;102401.91;5089737;28;20051;-76
2022/08/08 05:50:35;;;;;;;10.75;9.15;;;;;;;18.68;53.61;102405.25;5088997;28;20048;-75
2022/08/08 05:53:09;;;;;;;11.80;8.75;;;;;;;18.73;53.50;102403.03;5089741;28;20040;-76
2022/08/08 05:55:59;;;;;;;11.40;8.55;;;;;;;18.78;53.94;102407.25;5089499;28;20382;-76
2022/08/08 05:58:42;;;;;;;10.80;8.93;;;;;;;18.82;54.00;102404.16;5074881;28;20076;-75
2022/08/08 06:01:26;;;;;;;12.43;9.88;;;;;;;18.90;54.06;102407.09;5058582;28;20110;-75
2022/08/08 06:04:22;;;;;;;12.73;9.48;;;;;;;18.98;54.06;102415.50;5092592;28;20097;-76
2022/08/08 06:06:58;;;;;;;12.48;8.65;;;;;;;19.07;54.37;102424.78;5093043;28;20040;-79
2022/08/08 06:09:35;;;;;;;12.65;9.73;;;;;;;19.13;54.49;102415.25;5092336;28;20040;-78
2022/08/08 06:12:23;;;;;;;12.13;9.43;;;;;;;19.25;54.35;102411.50;5092977;28;20075;-73
2022/08/08 06:15:01;;;;;;;14.32;9.52;;;;;;;19.34;54.93;102417.09;5092889;28;20063;-76
2022/08/08 06:17:36;;;;;;;11.18;8.75;;;;;;;19.45;54.54;102421.63;5092835;28;20489;-75
2022/08/08 06:20:23;;;;;;;13.30;8.95;;;;;;;19.61;54.78;102421.25;5093785;28;20521;-76
2022/08/08 06:22:54;;;;;;;10.90;8.32;;;;;;;19.73;55.11;102422.94;5092779;28;20113;-78
2022/08/08 06:25:29;;;;;;;14.65;8.27;;;;;;;19.87;54.67;102421.75;5092985;28;20093;-73
2022/08/08 06:28:29;;;;;;;12.65;7.85;;;;;;;20.03;54.48;102424.03;5092721;28;20127;-75
2022/08/08 06:30:59;;;;;;;11.82;7.63;;;;;;;20.21;54.93;102430.66;5092362;28;20044;-75
2022/08/08 06:33:40;;;;;;;9.38;8.13;;;;;;;20.40;54.88;102432.66;5092569;28;20151;-76
2022/08/08 06:36:33;;;;;;;9.68;8.00;;;;;;;20.59;54.48;102436.38;5092806;28;20047;-76
2022/08/08 06:39:19;;;;;;;9.93;7.28;;;;;;;20.81;54.42;102434.50;5092053;28;20044;-77
2022/08/08 06:42:01;;;;;;;9.63;7.22;;;;;;;20.98;54.08;102433.84;5092261;28;20401;-75
2022/08/08 06:44:41;;;;;;;9.57;6.88;;;;;;;21.18;54.10;102434.75;5076996;28;20079;-75
2022/08/08 06:47:09;;;;;;;10.02;6.95;;;;;;;21.33;53.69;102435.25;5092230;28;20109;-76
2022/08/08 06:49:37;;;;;;;11.35;5.45;;;;;;;21.45;53.69;102445.94;5092341;28;20134;-76
2022/08/08 06:52:23;;;;;;;11.35;5.20;;;;;;;21.64;53.38;102450.59;5078265;28;20448;-74
2022/08/08 06:54:54;;;;;;;5.25;4.72;;;;;;;21.82;53.26;102448.00;5092083;28;20094;-75
2022/08/08 06:57:23;;;;;;;5.88;4.63;;;;;;;21.95;53.04;102432.19;5092445;28;20040;-75
2022/08/08 06:59:55;;;;;;;6.93;4.50;;;;;;;22.10;52.60;102430.75;5092496;28;20046;-76
2022/08/08 07:02:44;;;;;;;7.38;4.47;;;;;;;22.27;52.44;102433.75;5092310;28;20089;-75
2022/08/08 07:05:16;;;;;;;5.75;4.10;;;;;;;22.42;52.23;102432.31;5092065;28;20044;-75
2022/08/08 07:08:08;;;;;;;5.55;4.00;;;;;;;22.64;51.97;102431.94;5092083;28;20127;-76
2022/08/08 07:10:40;;;;;;;7.60;4.57;;;;;;;22.88;51.87;102433.34;5091296;28;20047;-70
2022/08/08 07:13:18;;;;;;;6.05;3.63;;;;;;;23.05;51.71;102435.31;5092213;28;20039;-70
2022/08/08 07:16:02;;;;;;;5.40;3.78;;;;;;;23.24;51.12;102440.69;5092113;28;20101;-68
2022/08/08 07:19:05;;;;;;;5.47;3.58;;;;;;;23.42;50.84;102444.31;5092762;28;20032;-70
2022/08/08 07:21:56;;;;;;;5.57;3.30;;;;;;;23.63;50.46;102445.94;5091885;28;20048;-70
2022/08/08 07:24:42;;;;;;;4.35;3.03;;;;;;;23.76;49.72;102451.91;5092199;28;20130;-70
2022/08/08 07:27:15;;;;;;;4.25;2.78;;;;;;;23.89;49.88;102446.91;5091864;28;20488;-73
2022/08/08 07:29:46;;;;;;;3.75;2.40;;;;;;;23.98;49.73;102451.44;5092493;28;20040;-69
2022/08/08 07:32:36;;;;;;;3.67;2.20;;;;;;;24.07;48.92;102455.13;5091774;28;20044;-69
2022/08/08 07:35:11;;;;;;;5.55;2.35;;;;;;;24.09;48.64;102451.22;5091539;28;20047;-70
2022/08/08 07:37:45;;;;;;;6.53;2.40;;;;;;;24.15;48.61;102454.34;5091288;28;20036;-70
2022/08/08 07:40:57;;;;;;;4.28;2.08;;;;;;;24.22;48.38;102456.28;5090076;28;20056;-69
2022/08/08 07:43:32;;;;;;;4.28;2.20;;;;;;;24.25;47.62;102457.84;5090804;28;20055;-70
2022/08/08 07:46:05;;;;;;;4.82;2.08;;;;;;;24.30;47.64;102455.53;5091110;28;20040;-70
2022/08/08 07:48:52;;;;;;;3.50;2.25;;;;;;;24.40;47.12;102464.53;5091046;28;20776;-70
2022/08/08 07:51:21;;;;;;;6.65;1.75;;;;;;;24.47;46.95;102460.09;5090818;28;20047;-70
2022/08/08 07:54:33;;;;;;;5.05;2.17;;;;;;;24.59;46.38;102456.09;5091120;28;20044;-70
2022/08/08 07:57:22;;;;;;;4.55;2.03;;;;;;;24.75;46.10;102470.97;5090839;28;20058;-69
2022/08/08 08:00:06;;;;;;;4.47;1.83;;;;;;;24.91;45.80;102469.16;5090651;28;20051;-69
2022/08/08 08:03:11;;;;;;;4.15;2.40;;;;;;;25.07;45.57;102475.81;5090198;28;20044;-71
2022/08/08 08:05:50;;;;;;;3.00;1.73;;;;;;;25.20;45.62;102479.81;5074871;28;20109;-73
2022/08/08 08:08:33;;;;;;;10.18;4.15;;;;;;;25.28;44.97;102479.88;5090129;28;20386;-72
2022/08/08 08:11:02;;;;;;;7.03;2.78;;;;;;;25.40;44.81;102479.56;5090283;28;20139;-74
2022/08/08 08:13:40;;;;;;;3.05;1.90;;;;;;;25.46;44.42;102481.66;5090368;28;20036;-73
2022/08/08 08:16:29;;;;;;;10.18;3.92;;;;;;;25.60;44.25;102486.50;5089884;28;20602;-74
2022/08/08 08:19:03;;;;;;;4.10;2.00;;;;;;;25.72;44.00;102481.59;5090537;28;20097;-72
2022/08/08 08:21:45;;;;;;;7.78;2.20;;;;;;;25.81;44.13;102486.06;5091486;28;20062;-71
2022/08/08 08:24:41;;;;;;;5.35;1.90;;;;;;;25.86;43.97;102490.03;5089562;28;20422;-72
2022/08/08 08:27:15;;;;;;;6.43;2.13;;;;;;;25.94;43.64;102487.31;5070180;28;20055;-71
2022/08/08 08:29:44;;;;;;;4.57;1.67;;;;;;;26.07;43.54;102481.31;5087011;28;20399;-72
2022/08/08 08:32:18;;;;;;;3.30;1.73;;;;;;;26.18;43.40;102486.50;5089512;28;20040;-73
2022/08/08 08:35:11;;;;;;;3.42;1.70;;;;;;;26.27;43.16;102482.69;5090198;28;20259;-71
2022/08/08 08:37:42;;;;;;;2.22;1.50;;;;;;;26.39;42.87;102486.00;5090115;28;20044;-70
2022/08/08 08:40:29;;;;;;;2.85;1.35;;;;;;;26.48;42.34;102478.59;5090325;28;20386;-70
2022/08/08 08:43:00;;;;;;;2.75;1.58;;;;;;;26.55;42.00;102482.38;5089701;28;20040;-72
2022/08/08 08:45:27;;;;;;;5.60;1.30;;;;;;;26.68;41.93;102481.81;5090279;28;20042;-71
2022/08/08 08:47:59;;;;;;;4.32;1.30;;;;;;;26.83;41.49;102489.22;5090312;28;20040;-71
2022/08/08 08:50:33;;;;;;;5.80;1.30;;;;;;;26.99;41.51;102485.59;5090432;28;20451;-70
2022/08/08 08:53:10;;;;;;;2.33;1.45;;;;;;;27.15;40.95;102492.94;5089923;28;20603;-70
2022/08/08 08:56:06;;;;;;;2.67;1.70;;;;;;;27.26;40.68;102488.94;5090021;28;20394;-70
2022/08/08 08:58:44;;;;;;;5.57;1.75;;;;;;;27.35;40.46;102488.72;5089947;28;20044;-71
2022/08/08 09:01:36;;;;;;;5.95;1.60;;;;;;;27.42;40.13;102498.00;5094887;28;20055;-72
2022/08/08 09:04:20;;;;;;;4.32;1.70;;;;;;;27.47;39.77;102491.94;5089675;28;20044;-71
2022/08/08 09:07:01;;;;;;;4.88;2.00;;;;;;;27.57;39.63;102491.75;5089984;28;20041;-71
2022/08/08 09:09:39;;;;;;;3.97;1.52;;;;;;;27.66;39.17;102488.78;5089748;28;20067;-71
2022/08/08 09:12:24;;;;;;;2.95;1.38;;;;;;;27.71;39.05;102486.34;5108635;28;20114;-71
2022/08/08 09:14:57;;;;;;;3.10;1.20;;;;;;;27.74;38.41;102479.59;5089967;28;20117;-71
2022/08/08 09:17:30;;;;;;;3.55;1.52;;;;;;;27.80;38.29;102484.38;5089151;28;20040;-70
2022/08/08 09:20:15;;;;;;;3.95;1.40;;;;;;;27.84;37.94;102483.84;5089844;28;20506;-71
2022/08/08 09:23:06;;;;;;;3.35;1.23;;;;;;;27.87;37.70;102484.50;5089490;28;20068;-71
2022/08/08 09:25:44;;;;;;;2.78;1.10;;;;;;;27.91;37.49;102491.38;5089792;28;20036;-71
2022/08/08 09:28:28;;;;;;;7.03;1.50;;;;;;;27.99;37.50;102483.03;5089804;28;20620;-71
2022/08/08 09:31:14;;;;;;;3.70;1.30;;;;;;;28.08;37.35;102484.69;5089848;28;20138;-71
2022/08/08 09:33:47;;;;;;;2.03;1.30;;;;;;;28.18;37.58;102485.31;5088996;28;20517;-70
2022/08/08 09:36:38;;;;;;;5.80;1.60;;;;;;;28.26;37.05;102481.69;5094460;28;20037;-71
2022/08/08 09:39:08;;;;;;;5.68;1.50;;;;;;;28.33;37.15;102477.97;5093708;28;20413;-70
2022/08/08 09:41:58;;;;;;;3.13;1.50;;;;;;;28.42;36.99;102485.16;5093384;28;20501;-70
2022/08/08 09:44:52;;;;;;;3.90;1.15;;;;;;;28.53;36.97;102474.69;5094357;27;20520;-71
2022/08/08 09:47:22;;;;;;;5.75;1.35;;;;;;;28.51;37.01;102479.53;5090967;28;20040;-71
2022/08/08 09:50:17;;;;;;;4.85;1.30;;;;;;;28.51;36.62;102479.53;5093659;28;20516;-72
2022/08/08 09:53:10;;;;;;;4.32;1.30;;;;;;;28.56;36.56;102477.06;5094700;28;20420;-71
2022/08/08 09:55:57;;;;;;;2.03;1.00;;;;;;;28.69;36.82;102483.66;5094638;28;20343;-72
2022/08/08 09:58:39;;;;;;;2.78;1.48;;;;;;;28.85;36.48;102477.13;5094469;28;20098;-69
2022/08/08 10:01:11;;;;;;;3.10;1.25;;;;;;;28.97;36.21;102475.59;5094728;28;20063;-73
2022/08/08 10:04:11;;;;;;;2.78;1.20;;;;;;;29.07;36.13;102476.22;5094567;28;20436;-71
2022/08/08 10:06:43;;;;;;;3.03;1.02;;;;;;;29.18;36.30;102479.53;5094561;28;20078;-71
2022/08/08 10:09:10;;;;;;;2.67;1.02;;;;;;;29.24;35.82;102482.38;5094250;28;20040;-71
2022/08/08 10:11:46;;;;;;;2.65;1.15;;;;;;;29.31;35.55;102482.47;5093275;28;20040;-70
2022/08/08 10:14:37;;;;;;;2.47;0.98;;;;;;;29.34;35.21;102476.56;5094128;28;20055;-71
2022/08/08 10:17:07;;;;;;;2.53;0.85;;;;;;;29.32;35.30;102485.06;5093778;28;20056;-71
2022/08/08 10:19:59;;;;;;;2.63;0.90;;;;;;;29.39;34.83;102474.06;5079207;28;20498;-70
2022/08/08 10:22:32;;;;;;;2.75;0.90;;;;;;;29.39;34.79;102480.47;5094247;28;20040;-72
2022/08/08 10:25:04;;;;;;;2.63;0.80;;;;;;;29.38;34.83;102480.66;5093576;28;20044;-73
2022/08/08 10:27:40;;;;;;;3.08;0.90;;;;;;;29.41;34.62;102483.03;5094542;28;20444;-70
2022/08/08 10:30:08;;;;;;;1.85;0.93;;;;;;;29.51;34.81;102472.53;5094133;28;20034;-71
2022/08/08 10:32:56;;;;;;;1.75;0.80;;;;;;;29.65;34.77;102476.31;5094322;28;20401;-72
2022/08/08 10:35:29;;;;;;;1.23;0.73;;;;;;;29.78;34.27;102475.66;5092298;28;20567;-72
2022/08/08 10:38:17;;;;;;;2.15;1.08;;;;;;;29.93;34.23;102473.66;5093375;28;20505;-71
2022/08/08 10:40:50;;;;;;;1.30;0.80;;;;;;;30.05;33.98;102469.34;5092243;28;20055;-71
2022/08/08 10:43:19;;;;;;;4.13;1.05;;;;;;;30.14;34.01;102470.06;5093342;28;20036;-72
2022/08/08 10:45:49;;;;;;;1.83;0.70;;;;;;;30.11;33.82;102478.78;5090740;28;20578;-71
2022/08/08 10:48:34;;;;;;;1.67;0.90;;;;;;;29.99;33.59;102470.97;5093128;28;20401;-73
2022/08/08 10:51:23;;;;;;;1.45;1.10;;;;;;;29.84;33.34;102477.63;5092245;28;20047;-71
2022/08/08 10:53:54;;;;;;;2.28;1.10;;;;;;;29.70;33.20;102471.06;5092459;28;20064;-72
2022/08/08 10:56:25;;;;;;;3.45;1.27;;;;;;;29.58;33.51;102475.38;5093194;27;20040;-72
2022/08/08 10:58:58;;;;;;;2.83;1.13;;;;;;;29.51;33.74;102468.91;5093240;28;20044;-73
2022/08/08 11:01:30;;;;;;;1.83;0.80;;;;;;;29.51;33.47;102466.16;5093088;28;20040;-74
2022/08/08 11:04:05;;;;;;;2.05;0.90;;;;;;;29.58;33.65;102462.41;5093122;28;20040;-72
2022/08/08 11:06:37;;;;;;;5.95;1.00;;;;;;;29.69;33.42;102461.88;5092892;27;20056;-74
2022/08/08 11:09:09;;;;;;;2.22;0.95;;;;;;;29.82;33.44;102447.34;5090807;28;20490;-71
2022/08/08 11:11:51;;;;;;;2.88;0.80;;;;;;;30.01;33.09;102457.81;5092939;28;20047;-72
2022/08/08 11:14:32;;;;;;;4.63;0.93;;;;;;;30.02;32.53;102455.91;5091688;28;20051;-72
2022/08/08 11:17:01;;;;;;;1.35;0.88;;;;;;;29.86;32.38;102454.22;5092836;28;20039;-71
2022/08/08 11:19:32;;;;;;;2.60;1.10;;;;;;;29.79;32.49;102460.75;5092705;28;20135;-71
2022/08/08 11:22:01;;;;;;;3.55;0.85;;;;;;;29.80;32.51;102459.69;5092636;28;20140;-72
2022/08/08 11:24:33;;;;;;;4.78;1.55;;;;;;;29.79;32.66;102458.81;5092972;28;20055;-73
2022/08/08 11:27:02;;;;;;;2.15;0.90;;;;;;;29.81;33.14;102453.94;5093076;28;20036;-72
2022/08/08 11:29:47;;;;;;;2.92;1.08;;;;;;;29.83;33.04;102449.06;5092485;27;20078;-73
2022/08/08 11:32:41;;;;;;;1.33;0.80;;;;;;;29.87;33.11;102446.75;5092253;28;20028;-73
2022/08/08 11:35:13;;;;;;;2.70;1.00;;;;;;;29.81;32.81;102450.31;5092595;27;20075;-72
2022/08/08 11:38:00;;;;;;;2.15;0.77;;;;;;;29.74;32.83;102447.47;5092616;28;20048;-72
2022/08/08 11:40:48;;;;;;;2.00;0.77;;;;;;;29.74;32.71;102447.47;5092460;28;20482;-72
2022/08/08 11:43:27;;;;;;;4.97;1.35;;;;;;;29.79;32.80;102439.44;5092804;28;20489;-73
2022/08/08 11:46:09;;;;;;;6.05;1.20;;;;;;;29.97;32.79;102447.28;5092006;28;20474;-74
2022/08/08 11:48:46;;;;;;;3.72;1.02;;;;;;;30.03;32.72;102438.22;5091924;28;20040;-74
2022/08/08 11:51:16;;;;;;;2.88;1.10;;;;;;;30.06;32.34;102442.50;5090511;28;20101;-72
2022/08/08 11:54:07;;;;;;;2.97;0.88;;;;;;;30.00;32.52;102441.34;5092428;28;20484;-71
2022/08/08 11:56:54;;;;;;;3.58;1.20;;;;;;;29.90;32.48;102438.91;5092056;28;20047;-71
2022/08/08 11:59:31;;;;;;;3.03;1.13;;;;;;;29.78;32.16;102434.09;5091893;28;20069;-70
2022/08/08 12:02:18;;;;;;;2.83;0.82;;;;;;;29.68;32.24;102434.41;5091762;28;20036;-71
2022/08/08 12:05:09;;;;;;;3.53;0.82;;;;;;;29.69;32.19;102427.81;5091805;28;20051;-70
2022/08/08 12:07:53;;;;;;;2.47;0.90;;;;;;;29.69;32.61;102431.44;5091969;28;20115;-71
2022/08/08 12:10:29;;;;;;;1.65;0.68;;;;;;;29.78;32.50;102432.19;5090673;28;20063;-71
2022/08/08 12:13:08;;;;;;;1.30;0.93;;;;;;;29.80;31.97;102430.06;5090486;28;20070;-73
2022/08/08 12:15:38;;;;;;;2.40;1.05;;;;;;;29.87;32.38;102422.69;5090502;28;20044;-72
2022/08/08 12:18:26;;;;;;;1.38;0.80;;;;;;;30.05;32.21;102422.25;5091890;28;20404;-71
2022/08/08 12:20:56;;;;;;;3.17;1.10;;;;;;;30.16;32.12;102418.94;5091779;28;20047;-71
2022/08/08 12:23:32;;;;;;;3.40;1.00;;;;;;;30.17;31.41;102417.00;5091856;28;20318;-72
2022/08/08 12:26:21;;;;;;;1.67;0.70;;;;;;;30.15;31.57;102416.34;5091525;28;20036;-73
2022/08/08 12:29:18;;;;;;;2.78;0.70;;;;;;;30.21;31.83;102421.97;5091551;28;20040;-74
2022/08/08 12:31:47;;;;;;;3.13;0.88;;;;;;;30.40;31.78;102420.41;5091250;28;20040;-73
2022/08/08 12:34:42;;;;;;;3.50;1.10;;;;;;;30.51;31.44;102419.88;5091379;28;20048;-74
2022/08/08 12:37:21;;;;;;;1.33;0.70;;;;;;;30.64;31.32;102419.97;5091718;28;20032;-72
2022/08/08 12:39:52;;;;;;;1.55;0.60;;;;;;;30.64;30.91;102410.81;5091481;28;20040;-73
2022/08/08 12:42:29;;;;;;;1.70;0.70;;;;;;;30.62;31.13;102412.94;5090905;28;20082;-71
2022/08/08 12:45:05;;;;;;;1.40;0.70;;;;;;;30.67;31.05;102408.47;5091277;28;20406;-74
2022/08/08 12:48:03;;;;;;;1.42;0.80;;;;;;;30.83;31.09;102407.28;5091655;28;20036;-73
2022/08/08 12:50:56;;;;;;;1.85;0.80;;;;;;;31.02;30.80;102402.91;5091536;28;20058;-71